createdAt,value
2023-05-16T00:00:37.972Z,74.3886
2023-05-16T00:01:40.370Z,73.9143
2023-05-16T00:02:42.812Z,73.6183
2023-05-16T00:03:44.990Z,73.5269
2023-05-16T00:04:47.306Z,73.4577
2023-05-16T00:05:49.614Z,74.1476
2023-05-16T00:06:51.945Z,74.2994
2023-05-16T00:07:54.286Z,74.2029
2023-05-16T00:08:56.604Z,73.8955
2023-05-16T00:09:58.948Z,74.1807
2023-05-16T00:11:01.288Z,74.1794
2023-05-16T00:12:03.596Z,74.3892
2023-05-16T00:13:05.926Z,74.8947
2023-05-16T00:14:08.265Z,74.7986
2023-05-16T00:15:10.593Z,74.3145
2023-05-16T00:16:13.063Z,74.3866
2023-05-16T00:17:15.263Z,74.2977
2023-05-16T00:18:17.574Z,74.2869
2023-05-16T00:19:19.978Z,74.1452
2023-05-16T00:20:22.242Z,74.0725
2023-05-16T00:21:24.560Z,73.9602
2023-05-16T00:22:26.873Z,73.8754
2023-05-16T00:23:29.224Z,73.9014
2023-05-16T00:24:31.542Z,74.5755
2023-05-16T00:25:33.893Z,75.3299
2023-05-16T00:26:36.192Z,75.2628
2023-05-16T00:27:38.537Z,74.6120
2023-05-16T00:28:40.849Z,74.2629
2023-05-16T00:29:43.185Z,74.0493
2023-05-16T00:30:45.545Z,73.6977
2023-05-16T00:31:47.859Z,73.5592
2023-05-16T00:32:50.223Z,73.8345
2023-05-16T00:33:52.504Z,73.8409
2023-05-16T00:34:54.812Z,73.6056
2023-05-16T00:35:57.157Z,73.3080
2023-05-16T00:36:59.467Z,73.0864
2023-05-16T00:38:01.801Z,72.6401
2023-05-16T00:39:04.147Z,72.8155
2023-05-16T00:40:06.510Z,72.6190
2023-05-16T00:41:16.321Z,72.0779
2023-05-16T00:42:20.290Z,71.7176
2023-05-16T00:43:13.523Z,71.4053
2023-05-16T00:44:15.768Z,70.9232
2023-05-16T00:45:18.150Z,70.7193
2023-05-16T00:46:20.476Z,71.1986
2023-05-16T00:47:22.770Z,71.4766
2023-05-16T00:48:25.090Z,71.9097
2023-05-16T00:49:27.440Z,72.2691
2023-05-16T00:50:29.937Z,72.4655
2023-05-16T00:51:32.082Z,72.5020
2023-05-16T00:52:34.403Z,72.6931
2023-05-16T00:53:36.753Z,72.4263
2023-05-16T00:54:39.091Z,72.8767
2023-05-16T00:55:41.396Z,73.3914
2023-05-16T00:56:43.768Z,73.5552
2023-05-16T00:57:46.073Z,73.7997
2023-05-16T00:58:48.464Z,74.1258
2023-05-16T00:59:50.759Z,74.2812
2023-05-16T01:00:53.064Z,74.4237
2023-05-16T01:01:55.449Z,74.4244
2023-05-16T01:02:57.825Z,74.4262
2023-05-16T01:04:00.274Z,74.5583
2023-05-16T01:05:02.410Z,74.6658
2023-05-16T01:06:04.741Z,74.7446
2023-05-16T01:07:07.103Z,74.6197
2023-05-16T01:08:09.416Z,74.5934
2023-05-16T01:09:11.758Z,74.7388
2023-05-16T01:10:14.062Z,74.8656
2023-05-16T01:11:16.397Z,74.9197
2023-05-16T01:12:18.735Z,74.8942
2023-05-16T01:13:21.091Z,74.7313
2023-05-16T01:14:23.412Z,74.5732
2023-05-16T01:15:25.938Z,74.6731
2023-05-16T01:16:28.115Z,74.8175
2023-05-16T01:17:30.430Z,74.8450
2023-05-16T01:18:32.809Z,74.6255
2023-05-16T01:19:35.101Z,74.5391
2023-05-16T01:20:37.400Z,74.4204
2023-05-16T01:21:39.773Z,74.5444
2023-05-16T01:22:42.083Z,74.5970
2023-05-16T01:23:44.402Z,74.6328
2023-05-16T01:24:46.749Z,74.6502
2023-05-16T01:25:49.098Z,74.7648
2023-05-16T01:26:51.388Z,74.8777
2023-05-16T01:27:53.714Z,75.0108
2023-05-16T01:28:56.071Z,75.3014
2023-05-16T01:29:58.380Z,75.4554
2023-05-16T01:31:00.766Z,75.3770
2023-05-16T01:32:03.088Z,75.3109
2023-05-16T01:33:05.485Z,75.4626
2023-05-16T01:34:07.682Z,75.0312
2023-05-16T01:35:10.026Z,74.8131
2023-05-16T01:36:12.338Z,74.8681
2023-05-16T01:37:14.658Z,74.9484
2023-05-16T01:38:17.002Z,75.0485
2023-05-16T01:39:19.359Z,74.8779
2023-05-16T01:40:21.691Z,74.9173
2023-05-16T01:41:24.056Z,75.0495
2023-05-16T01:42:26.414Z,74.9833
2023-05-16T01:43:28.683Z,75.0051
2023-05-16T01:44:30.973Z,75.3667
2023-05-16T01:45:33.321Z,74.9484
2023-05-16T01:46:35.684Z,74.4050
2023-05-16T01:47:37.988Z,74.0153
2023-05-16T01:48:40.300Z,73.9033
2023-05-16T01:49:42.660Z,73.6487
2023-05-16T01:50:44.980Z,73.5328
2023-05-16T01:51:47.290Z,73.5748
2023-05-16T01:52:49.634Z,74.0152
2023-05-16T01:53:51.968Z,74.1678
2023-05-16T01:54:54.292Z,74.0035
2023-05-16T01:55:56.634Z,74.5800
2023-05-16T01:56:58.940Z,74.3434
2023-05-16T01:58:01.275Z,73.9583
2023-05-16T01:59:03.620Z,73.9883
2023-05-16T02:00:05.979Z,73.9090
2023-05-16T02:01:08.348Z,73.8492
2023-05-16T02:02:10.602Z,73.9881
2023-05-16T02:03:13.042Z,73.8201
2023-05-16T02:04:15.390Z,73.4643
2023-05-16T02:05:17.645Z,73.4066
2023-05-16T02:06:19.949Z,73.5403
2023-05-16T02:07:22.324Z,73.5826
2023-05-16T02:08:24.561Z,73.6911
2023-05-16T02:09:26.901Z,73.9685
2023-05-16T02:10:29.249Z,73.8748
2023-05-16T02:11:31.681Z,74.1595
2023-05-16T02:12:33.911Z,74.3214
2023-05-16T02:13:36.295Z,74.1425
2023-05-16T02:14:38.582Z,74.2289
2023-05-16T02:15:40.935Z,73.9497
2023-05-16T02:16:43.311Z,73.8692
2023-05-16T02:17:45.638Z,73.8700
2023-05-16T02:18:47.953Z,73.9671
2023-05-16T02:19:50.281Z,73.9341
2023-05-16T02:20:52.625Z,74.1583
2023-05-16T02:21:54.896Z,74.1976
2023-05-16T02:22:57.233Z,74.1525
2023-05-16T02:23:59.546Z,74.0785
2023-05-16T02:25:01.858Z,74.0065
2023-05-16T02:26:04.201Z,74.1008
2023-05-16T02:27:06.569Z,74.1675
2023-05-16T02:28:08.881Z,74.2536
2023-05-16T02:29:11.216Z,74.4022
2023-05-16T02:30:13.533Z,74.1954
2023-05-16T02:31:15.937Z,74.1562
2023-05-16T02:32:18.225Z,74.1679
2023-05-16T02:33:20.541Z,74.1599
2023-05-16T02:34:22.915Z,74.2097
2023-05-16T02:35:25.368Z,74.1883
2023-05-16T02:36:27.563Z,74.4961
2023-05-16T02:37:29.885Z,74.6441
2023-05-16T02:38:32.212Z,75.0574
2023-05-16T02:39:34.562Z,75.1352
2023-05-16T02:40:36.882Z,74.9862
2023-05-16T02:41:39.203Z,74.6089
2023-05-16T02:42:41.534Z,74.1329
2023-05-16T02:43:46.811Z,74.0197
2023-05-16T02:44:53.785Z,73.8187
2023-05-16T02:45:48.802Z,73.8539
2023-05-16T02:46:51.052Z,73.9337
2023-05-16T02:47:53.225Z,73.8702
2023-05-16T02:48:55.539Z,73.9159
2023-05-16T02:49:57.887Z,74.0983
2023-05-16T02:51:00.184Z,74.0004
2023-05-16T02:52:02.550Z,73.9609
2023-05-16T02:53:04.825Z,74.0314
2023-05-16T02:54:07.195Z,74.0584
2023-05-16T02:55:21.760Z,74.0841
2023-05-16T02:56:11.894Z,74.2027
2023-05-16T02:57:14.181Z,74.4894
2023-05-16T02:58:16.542Z,74.5314
2023-05-16T02:59:18.911Z,74.5060
2023-05-16T03:00:21.170Z,74.7226
2023-05-16T03:01:23.609Z,74.8788
2023-05-16T03:02:26.027Z,74.8101
2023-05-16T03:03:28.491Z,74.8322
2023-05-16T03:04:30.662Z,74.8786
2023-05-16T03:05:33.279Z,74.7246
2023-05-16T03:06:35.258Z,74.7156
2023-05-16T03:07:37.560Z,74.6719
2023-05-16T03:08:39.889Z,74.6887
2023-05-16T03:09:42.259Z,74.6399
2023-05-16T03:10:44.543Z,74.5905
2023-05-16T03:11:46.888Z,74.6280
2023-05-16T03:12:49.232Z,74.6635
2023-05-16T03:13:51.582Z,74.5520
2023-05-16T03:14:53.896Z,74.4320
2023-05-16T03:15:56.241Z,74.3313
2023-05-16T03:16:58.543Z,74.3587
2023-05-16T03:18:00.906Z,74.7166
2023-05-16T03:19:03.218Z,74.6098
2023-05-16T03:20:05.547Z,74.2278
2023-05-16T03:21:07.861Z,74.2117
2023-05-16T03:22:10.206Z,74.2968
2023-05-16T03:23:12.561Z,74.3110
2023-05-16T03:24:14.910Z,74.1308
2023-05-16T03:25:17.213Z,73.7105
2023-05-16T03:26:19.536Z,73.5339
2023-05-16T03:27:21.908Z,73.6055
2023-05-16T03:28:24.248Z,73.6450
2023-05-16T03:29:26.537Z,73.8089
2023-05-16T03:30:28.865Z,74.1090
2023-05-16T03:31:31.228Z,74.1234
2023-05-16T03:32:33.614Z,74.3337
2023-05-16T03:33:35.900Z,74.2418
2023-05-16T03:34:38.232Z,74.2251
2023-05-16T03:35:40.575Z,74.4623
2023-05-16T03:36:42.855Z,74.4643
2023-05-16T03:37:45.243Z,74.3401
2023-05-16T03:38:47.540Z,74.2603
2023-05-16T03:39:49.857Z,74.4337
2023-05-16T03:40:52.196Z,74.5109
2023-05-16T03:41:54.536Z,74.4823
2023-05-16T03:42:56.873Z,74.5364
2023-05-16T03:43:59.200Z,74.5798
2023-05-16T03:45:01.540Z,74.7913
2023-05-16T03:46:03.902Z,75.0117
2023-05-16T03:47:06.205Z,75.2588
2023-05-16T03:48:08.591Z,75.3641
2023-05-16T03:49:10.862Z,75.3454
2023-05-16T03:50:13.237Z,75.5331
2023-05-16T03:51:15.521Z,75.6243
2023-05-16T03:52:17.952Z,75.7728
2023-05-16T03:53:20.236Z,75.6620
2023-05-16T03:54:22.595Z,75.4963
2023-05-16T03:55:25.159Z,75.5377
2023-05-16T03:56:27.232Z,75.6117
2023-05-16T03:57:29.563Z,74.9911
2023-05-16T03:58:31.903Z,74.1053
2023-05-16T03:59:34.169Z,73.5126
2023-05-16T04:00:36.502Z,73.4687
2023-05-16T04:01:38.981Z,73.8740
2023-05-16T04:02:41.420Z,74.4139
2023-05-16T04:03:43.576Z,73.7770
2023-05-16T04:04:46.082Z,72.9150
2023-05-16T04:05:48.216Z,72.3872
2023-05-16T04:06:50.495Z,72.4946
2023-05-16T04:07:52.860Z,72.6513
2023-05-16T04:08:55.233Z,72.4843
2023-05-16T04:09:57.471Z,72.6256
2023-05-16T04:10:59.835Z,71.9509
2023-05-16T04:12:02.301Z,71.5605
2023-05-16T04:13:04.464Z,72.4336
2023-05-16T04:14:06.857Z,73.1848
2023-05-16T04:15:09.130Z,73.4127
2023-05-16T04:16:11.462Z,73.2915
2023-05-16T04:17:13.799Z,72.9068
2023-05-16T04:18:16.187Z,73.3740
2023-05-16T04:19:18.659Z,73.9714
2023-05-16T04:20:20.765Z,74.1652
2023-05-16T04:21:23.132Z,74.8910
2023-05-16T04:22:25.459Z,74.8395
2023-05-16T04:23:27.766Z,74.8086
2023-05-16T04:24:30.126Z,75.0790
2023-05-16T04:25:32.423Z,75.1475
2023-05-16T04:26:34.808Z,74.8691
2023-05-16T04:27:37.072Z,75.0399
2023-05-16T04:28:39.418Z,74.8331
2023-05-16T04:29:41.772Z,75.6913
2023-05-16T04:30:44.159Z,75.9448
2023-05-16T04:31:46.541Z,75.7996
2023-05-16T04:32:48.792Z,76.2972
2023-05-16T04:33:51.115Z,76.0934
2023-05-16T04:34:53.498Z,75.2468
2023-05-16T04:35:55.815Z,75.8179
2023-05-16T04:36:58.193Z,75.3738
2023-05-16T04:38:00.385Z,75.3910
2023-05-16T04:39:02.724Z,75.1303
2023-05-16T04:40:05.056Z,75.9101
2023-05-16T04:41:07.385Z,76.6422
2023-05-16T04:42:09.724Z,76.6970
2023-05-16T04:43:12.055Z,76.2051
2023-05-16T04:44:14.451Z,75.9930
2023-05-16T04:45:16.712Z,75.7104
2023-05-16T04:46:19.105Z,74.9223
2023-05-16T04:47:21.452Z,74.8611
2023-05-16T04:48:23.734Z,74.5974
2023-05-16T04:49:26.132Z,74.5493
2023-05-16T04:50:28.581Z,75.2941
2023-05-16T04:51:30.817Z,75.0226
2023-05-16T04:52:33.284Z,74.4450
2023-05-16T04:53:35.488Z,74.2285
2023-05-16T04:54:37.958Z,73.9758
2023-05-16T04:55:40.367Z,73.9749
2023-05-16T04:56:42.595Z,74.8208
2023-05-16T04:57:44.886Z,74.2196
2023-05-16T04:58:47.306Z,73.9141
2023-05-16T04:59:49.445Z,73.6591
2023-05-16T05:00:51.900Z,73.4389
2023-05-16T05:01:54.172Z,73.6588
2023-05-16T05:02:56.477Z,74.3175
2023-05-16T05:03:58.724Z,74.7790
2023-05-16T05:05:01.159Z,75.8942
2023-05-16T05:06:03.526Z,76.5822
2023-05-16T05:07:05.850Z,75.5670
2023-05-16T05:08:08.117Z,74.7815
2023-05-16T05:09:10.422Z,75.4252
2023-05-16T05:10:12.867Z,75.6138
2023-05-16T05:11:15.288Z,76.1428
2023-05-16T05:12:17.518Z,76.1091
2023-05-16T05:13:19.839Z,75.5499
2023-05-16T05:14:22.201Z,74.9327
2023-05-16T05:15:24.892Z,75.0735
2023-05-16T05:16:26.799Z,74.8629
2023-05-16T05:17:29.213Z,74.7055
2023-05-16T05:18:31.513Z,74.9549
2023-05-16T05:19:33.782Z,74.4072
2023-05-16T05:20:36.092Z,74.9261
2023-05-16T05:21:38.364Z,74.9835
2023-05-16T05:22:40.751Z,75.4181
2023-05-16T05:23:43.071Z,74.9934
2023-05-16T05:24:45.324Z,74.9863
2023-05-16T05:25:47.678Z,75.2845
2023-05-16T05:26:50.170Z,75.5065
2023-05-16T05:27:52.354Z,75.5873
2023-05-16T05:29:04.746Z,75.0545
2023-05-16T05:29:57.199Z,74.1579
2023-05-16T05:30:59.347Z,74.4375
2023-05-16T05:32:01.853Z,75.2778
2023-05-16T05:33:04.058Z,75.5212
2023-05-16T05:34:06.454Z,74.6176
2023-05-16T05:35:08.697Z,73.9632
2023-05-16T05:36:11.032Z,73.8174
2023-05-16T05:37:13.420Z,74.0952
2023-05-16T05:38:15.809Z,74.8789
2023-05-16T05:39:17.988Z,74.6676
2023-05-16T05:40:20.544Z,74.4092
2023-05-16T05:41:22.747Z,73.9112
2023-05-16T05:42:25.098Z,73.5324
2023-05-16T05:43:27.346Z,73.8181
2023-05-16T05:44:29.714Z,73.7350
2023-05-16T05:45:32.006Z,73.7459
2023-05-16T05:46:34.402Z,73.9978
2023-05-16T05:47:36.702Z,74.0423
2023-05-16T05:48:39.034Z,73.8572
2023-05-16T05:49:41.344Z,73.3604
2023-05-16T05:50:43.652Z,73.5099
2023-05-16T05:51:46.005Z,73.9286
2023-05-16T05:52:48.337Z,73.5334
2023-05-16T05:53:50.679Z,73.4868
2023-05-16T05:54:52.964Z,73.8111
2023-05-16T05:55:55.341Z,73.6442
2023-05-16T05:56:57.678Z,74.0388
2023-05-16T05:58:00.008Z,73.7585
2023-05-16T05:59:02.302Z,72.9762
2023-05-16T06:00:04.636Z,74.4367
2023-05-16T06:01:06.988Z,74.1524
2023-05-16T06:02:09.457Z,74.3233
2023-05-16T06:03:11.715Z,74.4643
2023-05-16T06:04:13.967Z,73.3466
2023-05-16T06:05:16.356Z,73.0546
2023-05-16T06:06:18.676Z,72.5643
2023-05-16T06:07:20.990Z,72.3778
2023-05-16T06:08:23.290Z,73.7721
2023-05-16T06:09:25.616Z,73.5529
2023-05-16T06:10:27.950Z,72.7341
2023-05-16T06:11:30.276Z,73.3914
2023-05-16T06:12:32.625Z,73.7075
2023-05-16T06:13:34.940Z,73.2746
2023-05-16T06:14:37.274Z,73.1010
2023-05-16T06:15:39.669Z,72.6979
2023-05-16T06:16:41.937Z,72.3104
2023-05-16T06:17:44.781Z,72.1951
2023-05-16T06:18:46.648Z,73.0798
2023-05-16T06:19:48.976Z,73.5439
2023-05-16T06:20:51.289Z,73.9622
2023-05-16T06:21:53.613Z,73.6520
2023-05-16T06:22:55.965Z,73.0064
2023-05-16T06:23:58.293Z,73.4305
2023-05-16T06:25:00.596Z,72.9310
2023-05-16T06:26:02.953Z,72.3402
2023-05-16T06:27:05.282Z,72.4682
2023-05-16T06:28:07.652Z,73.6112
2023-05-16T06:29:09.961Z,73.2580
2023-05-16T06:30:12.289Z,72.5248
2023-05-16T06:31:14.637Z,72.2150
2023-05-16T06:32:16.965Z,73.1022
2023-05-16T06:33:19.365Z,72.1619
2023-05-16T06:34:21.639Z,72.0297
2023-05-16T06:35:23.948Z,72.5152
2023-05-16T06:36:26.347Z,72.3336
2023-05-16T06:37:28.654Z,72.7259
2023-05-16T06:38:30.943Z,72.2990
2023-05-16T06:39:33.277Z,72.6855
2023-05-16T06:40:35.628Z,72.9308
2023-05-16T06:41:37.971Z,72.4202
2023-05-16T06:42:40.283Z,72.3523
2023-05-16T06:43:42.646Z,72.3889
2023-05-16T06:44:44.964Z,71.8667
2023-05-16T06:45:47.285Z,70.9856
2023-05-16T06:46:49.708Z,71.1761
2023-05-16T06:47:52.099Z,70.7681
2023-05-16T06:48:54.318Z,70.4962
2023-05-16T06:49:56.631Z,70.3874
2023-05-16T06:51:06.475Z,70.9439
2023-05-16T06:52:01.288Z,71.7571
2023-05-16T06:53:03.605Z,71.6624
2023-05-16T06:54:05.948Z,71.1131
2023-05-16T06:55:08.303Z,70.7009
2023-05-16T06:56:10.624Z,70.4935
2023-05-16T06:57:12.982Z,70.3815
2023-05-16T06:58:15.285Z,70.6136
2023-05-16T06:59:17.599Z,71.3004
2023-05-16T07:00:19.946Z,71.3776
2023-05-16T07:01:22.370Z,71.3060
2023-05-16T07:02:24.753Z,71.1044
2023-05-16T07:03:26.981Z,71.5221
2023-05-16T07:04:29.295Z,71.9742
2023-05-16T07:05:31.624Z,72.1188
2023-05-16T07:06:34.042Z,72.7680
2023-05-16T07:07:36.399Z,72.6878
2023-05-16T07:08:38.687Z,72.4865
2023-05-16T07:09:41.019Z,72.0500
2023-05-16T07:10:43.361Z,72.1066
2023-05-16T07:11:45.677Z,71.8701
2023-05-16T07:12:48.045Z,71.6428
2023-05-16T07:13:50.364Z,71.2304
2023-05-16T07:14:52.702Z,70.8191
2023-05-16T07:15:55.049Z,70.6824
2023-05-16T07:16:57.445Z,70.5603
2023-05-16T07:17:59.726Z,71.3661
2023-05-16T07:19:02.137Z,70.9023
2023-05-16T07:20:05.449Z,70.2616
2023-05-16T07:21:06.774Z,70.8117
2023-05-16T07:22:09.078Z,70.7598
2023-05-16T07:23:11.348Z,71.6450
2023-05-16T07:24:13.665Z,71.6344
2023-05-16T07:25:16.052Z,72.4168
2023-05-16T07:26:18.614Z,72.1101
2023-05-16T07:27:23.357Z,72.6575
2023-05-16T07:28:22.989Z,72.2711
2023-05-16T07:29:25.318Z,72.0110
2023-05-16T07:30:27.668Z,71.6575
2023-05-16T07:31:30.000Z,71.9095
2023-05-16T07:32:32.311Z,71.4501
2023-05-16T07:33:34.640Z,72.0777
2023-05-16T07:34:36.963Z,71.7952
2023-05-16T07:35:39.397Z,71.5733
2023-05-16T07:36:41.621Z,72.4303
2023-05-16T07:37:43.984Z,71.0922
2023-05-16T07:38:46.282Z,70.5880
2023-05-16T07:39:48.605Z,70.6089
2023-05-16T07:40:50.988Z,71.7626
2023-05-16T07:41:53.307Z,71.8966
2023-05-16T07:42:55.633Z,71.4159
2023-05-16T07:43:57.961Z,70.8851
2023-05-16T07:45:00.303Z,71.2675
2023-05-16T07:46:02.654Z,71.7263
2023-05-16T07:47:04.967Z,71.2472
2023-05-16T07:48:07.306Z,70.5022
2023-05-16T07:49:09.643Z,70.3256
2023-05-16T07:50:12.027Z,69.5928
2023-05-16T07:51:14.315Z,69.3723
2023-05-16T07:52:16.721Z,69.8761
2023-05-16T07:53:19.096Z,69.5618
2023-05-16T07:54:21.272Z,69.9006
2023-05-16T07:55:23.625Z,69.7162
2023-05-16T07:56:26.058Z,69.1549
2023-05-16T07:57:28.330Z,68.7103
2023-05-16T07:58:30.656Z,70.3195
2023-05-16T07:59:33.086Z,70.5919
2023-05-16T08:00:35.270Z,70.1538
2023-05-16T08:01:37.598Z,70.2058
2023-05-16T08:02:40.051Z,69.9090
2023-05-16T08:03:42.368Z,69.6373
2023-05-16T08:04:44.592Z,70.1811
2023-05-16T08:05:47.125Z,70.5011
2023-05-16T08:06:49.252Z,69.6562
2023-05-16T08:07:51.610Z,69.2359
2023-05-16T08:08:53.954Z,70.0350
2023-05-16T08:09:56.273Z,70.6827
2023-05-16T08:10:58.586Z,71.3850
2023-05-16T08:12:00.952Z,71.3625
2023-05-16T08:13:03.257Z,70.8571
2023-05-16T08:14:05.589Z,70.9522
2023-05-16T08:15:07.917Z,71.5137
2023-05-16T08:16:10.282Z,71.2452
2023-05-16T08:17:12.608Z,71.4884
2023-05-16T08:18:15.039Z,71.8411
2023-05-16T08:19:17.370Z,71.3871
2023-05-16T08:20:19.583Z,70.9943
2023-05-16T08:21:21.976Z,70.7626
2023-05-16T08:22:24.570Z,71.4265
2023-05-16T08:23:27.530Z,70.5415
2023-05-16T08:24:28.917Z,70.1485
2023-05-16T08:25:31.282Z,70.0537
2023-05-16T08:26:33.570Z,69.5465
2023-05-16T08:27:35.893Z,69.3970
2023-05-16T08:28:38.273Z,69.5222
2023-05-16T08:29:40.559Z,69.5734
2023-05-16T08:30:43.813Z,70.7424
2023-05-16T08:31:45.317Z,70.6835
2023-05-16T08:32:47.631Z,70.0432
2023-05-16T08:33:49.990Z,70.0916
2023-05-16T08:34:52.229Z,69.9078
2023-05-16T08:35:54.592Z,70.3795
2023-05-16T08:36:56.986Z,70.4105
2023-05-16T08:37:59.450Z,71.1583
2023-05-16T08:39:01.793Z,70.1705
2023-05-16T08:40:03.997Z,69.6746
2023-05-16T08:41:06.238Z,69.5718
2023-05-16T08:42:08.553Z,69.9457
2023-05-16T08:43:10.938Z,70.2755
2023-05-16T08:44:13.280Z,70.1105
2023-05-16T08:45:15.609Z,71.1969
2023-05-16T08:46:17.919Z,71.0730
2023-05-16T08:47:20.237Z,70.2748
2023-05-16T08:48:22.859Z,70.2501
2023-05-16T08:49:24.962Z,70.2805
2023-05-16T08:50:27.248Z,70.8603
2023-05-16T08:51:29.639Z,70.5023
2023-05-16T08:52:32.056Z,70.2442
2023-05-16T08:53:34.289Z,69.9587
2023-05-16T08:54:36.684Z,70.6473
2023-05-16T08:55:39.206Z,70.1702
2023-05-16T08:56:41.291Z,70.9282
2023-05-16T08:57:43.554Z,71.2548
2023-05-16T08:58:45.938Z,72.1065
2023-05-16T08:59:48.342Z,71.8721
2023-05-16T09:00:50.686Z,71.8000
2023-05-16T09:01:52.927Z,71.1282
2023-05-16T09:02:55.324Z,71.4898
2023-05-16T09:03:57.726Z,70.7883
2023-05-16T09:04:59.943Z,70.0802
2023-05-16T09:06:02.332Z,70.5230
2023-05-16T09:07:04.786Z,69.9963
2023-05-16T09:08:07.033Z,69.7631
2023-05-16T09:09:09.290Z,69.3205
2023-05-16T09:10:11.680Z,69.1985
2023-05-16T09:11:14.034Z,69.6234
2023-05-16T09:12:16.319Z,69.5244
2023-05-16T09:13:18.929Z,69.2922
2023-05-16T09:14:21.045Z,69.7348
2023-05-16T09:15:23.306Z,69.6433
2023-05-16T09:16:26.029Z,69.6982
2023-05-16T09:17:39.065Z,70.0928
2023-05-16T09:18:30.334Z,69.8679
2023-05-16T09:19:32.717Z,69.6392
2023-05-16T09:20:35.081Z,69.0350
2023-05-16T09:21:37.325Z,68.9772
2023-05-16T09:22:39.888Z,68.8182
2023-05-16T09:23:42.056Z,69.1821
2023-05-16T09:24:44.378Z,69.0404
2023-05-16T09:25:46.716Z,69.6860
2023-05-16T09:26:49.001Z,69.4591
2023-05-16T09:27:51.396Z,68.9276
2023-05-16T09:28:53.676Z,69.0088
2023-05-16T09:29:56.312Z,69.0603
2023-05-16T09:30:58.469Z,69.1873
2023-05-16T09:32:00.696Z,67.7246
2023-05-16T09:33:03.207Z,68.1260
2023-05-16T09:34:05.332Z,68.0672
2023-05-16T09:35:07.720Z,67.7408
2023-05-16T09:36:10.062Z,67.9314
2023-05-16T09:37:12.370Z,67.5985
2023-05-16T09:38:14.732Z,68.0970
2023-05-16T09:39:17.150Z,67.9319
2023-05-16T09:40:19.488Z,68.2641
2023-05-16T09:41:21.752Z,68.3549
2023-05-16T09:42:24.227Z,68.0017
2023-05-16T09:43:26.429Z,67.8440
2023-05-16T09:44:28.833Z,67.3036
2023-05-16T09:45:31.224Z,66.8437
2023-05-16T09:46:33.475Z,67.2017
2023-05-16T09:47:35.809Z,66.4080
2023-05-16T09:48:38.096Z,66.3703
2023-05-16T09:49:40.522Z,65.4799
2023-05-16T09:50:42.763Z,65.1794
2023-05-16T09:51:45.208Z,65.7015
2023-05-16T09:52:47.510Z,65.6681
2023-05-16T09:53:49.774Z,65.5936
2023-05-16T09:54:52.097Z,65.2979
2023-05-16T09:55:54.460Z,65.3701
2023-05-16T09:56:56.888Z,65.5757
2023-05-16T09:57:59.166Z,65.9092
2023-05-16T09:59:01.497Z,66.7973
2023-05-16T10:00:03.985Z,68.7420
2023-05-16T10:01:06.112Z,69.5375
2023-05-16T10:02:08.473Z,69.5568
2023-05-16T10:03:10.878Z,69.3169
2023-05-16T10:04:13.284Z,69.4296
2023-05-16T10:05:15.589Z,69.2294
2023-05-16T10:06:17.986Z,69.8469
2023-05-16T10:07:20.283Z,70.3172
2023-05-16T10:08:22.908Z,70.3573
2023-05-16T10:09:24.825Z,69.8259
2023-05-16T10:10:27.181Z,70.1493
2023-05-16T10:11:29.715Z,70.3384
2023-05-16T10:12:31.916Z,70.0680
2023-05-16T10:13:34.341Z,70.4623
2023-05-16T10:14:36.550Z,70.1563
2023-05-16T10:15:38.974Z,70.6995
2023-05-16T10:16:41.417Z,71.8763
2023-05-16T10:17:43.623Z,72.0084
2023-05-16T10:18:46.107Z,72.0448
2023-05-16T10:19:48.228Z,72.1516
2023-05-16T10:20:50.548Z,72.3399
2023-05-16T10:21:52.975Z,72.7761
2023-05-16T10:22:55.251Z,73.1155
2023-05-16T10:23:57.553Z,73.0754
2023-05-16T10:24:59.967Z,73.2639
2023-05-16T10:26:02.363Z,73.9779
2023-05-16T10:27:04.720Z,74.2395
2023-05-16T10:28:06.903Z,74.3534
2023-05-16T10:29:09.233Z,74.3440
2023-05-16T10:30:11.591Z,74.3913
2023-05-16T10:31:13.984Z,74.3476
2023-05-16T10:32:16.353Z,74.3542
2023-05-16T10:33:18.789Z,74.5950
2023-05-16T10:34:21.329Z,74.1735
2023-05-16T10:35:23.270Z,74.5992
2023-05-16T10:36:25.816Z,75.3075
2023-05-16T10:37:27.942Z,76.1748
2023-05-16T10:38:30.432Z,76.3770
2023-05-16T10:39:32.566Z,76.4570
2023-05-16T10:40:34.887Z,76.3566
2023-05-16T10:41:37.213Z,76.1208
2023-05-16T10:42:39.576Z,76.4140
2023-05-16T10:43:44.525Z,76.3340
2023-05-16T10:44:54.665Z,75.7429
2023-05-16T10:45:46.584Z,75.9338
2023-05-16T10:46:48.932Z,76.0211
2023-05-16T10:47:51.237Z,75.8125
2023-05-16T10:48:55.510Z,75.8325
2023-05-16T10:49:55.907Z,74.9584
2023-05-16T10:50:58.230Z,75.2796
2023-05-16T10:52:00.680Z,76.5725
2023-05-16T10:53:03.013Z,77.1441
2023-05-16T10:54:05.370Z,77.1720
2023-05-16T10:55:07.549Z,76.8508
2023-05-16T10:56:10.164Z,76.8860
2023-05-16T10:57:12.300Z,76.7578
2023-05-16T10:58:14.770Z,76.4355
2023-05-16T10:59:16.983Z,76.3547
2023-05-16T11:00:19.244Z,76.6790
2023-05-16T11:01:21.820Z,76.6567
2023-05-16T11:02:23.962Z,76.6050
2023-05-16T11:03:26.408Z,76.5315
2023-05-16T11:04:28.580Z,76.4193
2023-05-16T11:05:30.855Z,76.5078
2023-05-16T11:06:33.371Z,76.4731
2023-05-16T11:07:35.700Z,76.4501
2023-05-16T11:08:37.922Z,76.6076
2023-05-16T11:09:40.441Z,76.6305
2023-05-16T11:10:42.632Z,75.8438
2023-05-16T11:11:47.970Z,75.6004
2023-05-16T11:12:47.265Z,75.7438
2023-05-16T11:13:49.586Z,76.2425
2023-05-16T11:14:51.919Z,76.6213
2023-05-16T11:15:54.253Z,76.9225
2023-05-16T11:16:56.844Z,77.6541
2023-05-16T11:17:58.969Z,77.6976
2023-05-16T11:19:01.395Z,77.5935
2023-05-16T11:20:03.686Z,77.5027
2023-05-16T11:21:05.945Z,77.6443
2023-05-16T11:22:08.267Z,77.5952
2023-05-16T11:23:10.593Z,77.3823
2023-05-16T11:24:12.998Z,77.0159
2023-05-16T11:25:15.408Z,76.7684
2023-05-16T11:26:17.715Z,76.1906
2023-05-16T11:27:19.917Z,76.2299
2023-05-16T11:28:22.647Z,75.8896
2023-05-16T11:29:24.541Z,75.2448
2023-05-16T11:30:26.968Z,75.6839
2023-05-16T11:31:29.326Z,75.8382
2023-05-16T11:32:31.974Z,76.2997
2023-05-16T11:33:34.065Z,76.7690
2023-05-16T11:34:36.234Z,77.0850
2023-05-16T11:35:38.595Z,77.6273
2023-05-16T11:36:41.017Z,77.5674
2023-05-16T11:37:43.321Z,77.4808
2023-05-16T11:38:45.612Z,76.1808
2023-05-16T11:39:48.042Z,76.1977
2023-05-16T11:40:50.280Z,76.5404
2023-05-16T11:41:52.584Z,77.2916
2023-05-16T11:42:55.134Z,78.7240
2023-05-16T11:43:57.249Z,78.5080
2023-05-16T11:44:59.611Z,79.1575
2023-05-16T11:46:01.967Z,79.8566
2023-05-16T11:47:04.441Z,79.9067
2023-05-16T11:48:06.726Z,80.3243
2023-05-16T11:49:08.959Z,80.4153
2023-05-16T11:50:11.273Z,80.5813
2023-05-16T11:51:13.643Z,81.0095
2023-05-16T11:52:15.888Z,81.1605
2023-05-16T11:53:18.242Z,81.2204
2023-05-16T11:54:20.589Z,81.2144
2023-05-16T11:55:36.788Z,81.5421
2023-05-16T11:56:25.286Z,81.9913
2023-05-16T11:57:27.527Z,82.0564
2023-05-16T11:58:29.966Z,81.9977
2023-05-16T11:59:32.252Z,82.3858
2023-05-16T12:00:34.551Z,82.5099
2023-05-16T12:01:36.902Z,82.0097
2023-05-16T12:02:39.268Z,81.7915
2023-05-16T12:03:41.735Z,81.6495
2023-05-16T12:04:43.991Z,81.4955
2023-05-16T12:05:46.411Z,81.1614
2023-05-16T12:06:48.590Z,81.4187
2023-05-16T12:07:50.859Z,81.8406
2023-05-16T12:08:53.173Z,81.7942
2023-05-16T12:09:55.493Z,81.9203
2023-05-16T12:10:57.839Z,81.5883
2023-05-16T12:12:00.199Z,81.4453
2023-05-16T12:13:02.496Z,81.0641
2023-05-16T12:14:04.855Z,81.0788
2023-05-16T12:15:07.201Z,80.7949
2023-05-16T12:16:09.587Z,80.7438
2023-05-16T12:17:11.983Z,80.9856
2023-05-16T12:18:14.230Z,81.0261
2023-05-16T12:19:16.563Z,81.3994
2023-05-16T12:20:18.796Z,81.2740
2023-05-16T12:21:21.171Z,80.8686
2023-05-16T12:22:23.496Z,81.0703
2023-05-16T12:23:25.851Z,81.2216
2023-05-16T12:24:30.101Z,81.1410
2023-05-16T12:25:30.843Z,81.5306
2023-05-16T12:26:32.786Z,81.6928
2023-05-16T12:27:35.216Z,81.6044
2023-05-16T12:28:37.471Z,81.0467
2023-05-16T12:29:39.811Z,80.8911
2023-05-16T12:30:42.128Z,80.9941
2023-05-16T12:31:44.537Z,81.1959
2023-05-16T12:32:47.008Z,81.2152
2023-05-16T12:33:49.197Z,81.1957